createdAt,value
2017-05-22T00:01:13.619Z,15.40
2017-05-22T00:03:41.847Z,15.40
2017-05-22T00:06:10.162Z,15.30
2017-05-22T00:08:37.620Z,15.20
2017-05-22T00:11:05.894Z,15.00
2017-05-22T00:13:34.137Z,14.90
2017-05-22T00:16:02.432Z,14.90
2017-05-22T00:18:30.723Z,14.90
2017-05-22T00:20:58.966Z,14.80
2017-05-22T00:23:27.214Z,14.80
2017-05-22T00:25:55.458Z,14.70
2017-05-22T00:28:23.709Z,14.70
2017-05-22T00:30:51.945Z,14.70
2017-05-22T00:33:20.259Z,14.60
2017-05-22T00:35:48.511Z,14.60
2017-05-22T00:38:15.989Z,14.60
2017-05-22T00:40:44.230Z,14.70
2017-05-22T00:43:12.560Z,14.70
2017-05-22T00:45:40.788Z,14.70
2017-05-22T00:48:08.247Z,14.70
2017-05-22T00:50:36.561Z,14.70
2017-05-22T00:53:04.805Z,14.60
2017-05-22T00:55:33.061Z,14.50
2017-05-22T00:58:01.312Z,14.50
2017-05-22T01:00:29.560Z,14.50
2017-05-22T01:02:57.793Z,14.50
2017-05-22T01:05:26.033Z,14.60
2017-05-22T01:07:54.263Z,14.50
2017-05-22T01:10:22.499Z,14.30
2017-05-22T01:12:50.732Z,14.20
2017-05-22T01:15:19.014Z,14.00
2017-05-22T01:17:47.236Z,13.90
2017-05-22T01:20:15.483Z,13.80
2017-05-22T01:22:43.708Z,13.60
2017-05-22T01:25:11.938Z,13.50
2017-05-22T01:27:40.186Z,13.50
2017-05-22T01:30:08.437Z,13.40
2017-05-22T01:32:36.686Z,13.30
2017-05-22T01:35:05.013Z,13.30
2017-05-22T01:37:33.257Z,13.30
2017-05-22T01:40:01.511Z,13.30
2017-05-22T01:42:29.828Z,13.40
2017-05-22T01:44:57.310Z,13.40
2017-05-22T01:47:25.559Z,13.40
2017-05-22T01:49:53.807Z,13.50
2017-05-22T01:52:22.125Z,13.70
2017-05-22T01:54:50.373Z,13.70
2017-05-22T01:57:18.613Z,13.70
2017-05-22T01:59:46.945Z,13.70
2017-05-22T02:02:15.230Z,13.60
2017-05-22T02:04:43.473Z,13.60
2017-05-22T02:07:11.785Z,13.80
2017-05-22T02:09:40.054Z,13.80
2017-05-22T02:12:08.310Z,13.70
2017-05-22T02:14:36.557Z,13.60
2017-05-22T02:17:04.018Z,13.60
2017-05-22T02:19:32.251Z,13.80
2017-05-22T02:21:59.724Z,13.80
2017-05-22T02:24:27.965Z,13.70
2017-05-22T02:26:56.339Z,13.60
2017-05-22T02:29:24.575Z,13.40
2017-05-22T02:31:52.888Z,13.30
2017-05-22T02:34:21.128Z,13.10
2017-05-22T02:36:49.454Z,12.90
2017-05-22T02:39:17.684Z,12.90
2017-05-22T02:41:45.998Z,12.80
2017-05-22T02:44:14.233Z,12.80
2017-05-22T02:46:42.469Z,12.80
2017-05-22T02:49:10.703Z,12.70
2017-05-22T02:51:39.001Z,12.70
2017-05-22T02:54:07.359Z,12.50
2017-05-22T02:56:35.649Z,12.50
2017-05-22T02:59:03.907Z,12.40
2017-05-22T03:01:32.134Z,12.40
2017-05-22T03:04:00.368Z,12.30
2017-05-22T03:06:28.611Z,12.30
2017-05-22T03:08:56.843Z,12.30
2017-05-22T03:11:25.078Z,12.20
2017-05-22T03:13:53.327Z,12.10
2017-05-22T03:16:21.577Z,12.20
2017-05-22T03:18:49.931Z,12.20
2017-05-22T03:21:18.195Z,12.20
2017-05-22T03:23:46.472Z,12.20
2017-05-22T03:26:14.714Z,12.20
2017-05-22T03:28:42.944Z,12.20
2017-05-22T03:31:10.414Z,12.20
2017-05-22T03:33:38.658Z,12.40
2017-05-22T03:36:06.900Z,12.40
2017-05-22T03:38:35.147Z,12.40
2017-05-22T03:41:03.385Z,12.50
2017-05-22T03:43:31.642Z,12.60
2017-05-22T03:45:59.881Z,12.80
2017-05-22T03:48:28.152Z,12.90
2017-05-22T03:50:56.394Z,13.00
2017-05-22T03:53:24.641Z,13.20
2017-05-22T03:55:52.896Z,13.30
2017-05-22T03:58:21.208Z,13.50
2017-05-22T04:00:49.458Z,13.60
2017-05-22T04:03:17.698Z,13.70
2017-05-22T04:05:45.932Z,13.60
2017-05-22T04:08:13.411Z,13.60
2017-05-22T04:10:41.639Z,13.70
2017-05-22T04:13:09.887Z,13.80
2017-05-22T04:15:38.297Z,13.80
2017-05-22T04:18:06.557Z,13.90
2017-05-22T04:20:34.810Z,14.00
2017-05-22T04:23:02.284Z,14.00
2017-05-22T04:25:30.549Z,14.00
2017-05-22T04:27:58.876Z,14.10
2017-05-22T04:30:27.107Z,14.10
2017-05-22T04:32:55.430Z,14.20
2017-05-22T04:35:22.900Z,14.20
2017-05-22T04:37:51.161Z,14.30
2017-05-22T04:40:19.391Z,14.30
2017-05-22T04:42:47.624Z,14.40
2017-05-22T04:45:15.875Z,14.60
2017-05-22T04:47:44.134Z,14.50
2017-05-22T04:50:12.363Z,14.60
2017-05-22T04:52:40.617Z,14.60
2017-05-22T04:55:08.876Z,14.60
2017-05-22T04:57:37.141Z,14.70
2017-05-22T05:00:05.371Z,14.80
2017-05-22T05:02:33.623Z,14.80
2017-05-22T05:05:01.864Z,14.90
2017-05-22T05:07:30.169Z,14.70
2017-05-22T05:09:58.415Z,14.80
2017-05-22T05:12:26.703Z,15.10
2017-05-22T05:14:54.933Z,15.20
2017-05-22T05:17:23.165Z,15.40
2017-05-22T05:19:51.418Z,16.10
2017-05-22T05:22:19.717Z,16.60
2017-05-22T05:24:47.969Z,16.90
2017-05-22T05:27:16.209Z,17.30
2017-05-22T05:29:44.539Z,18.10
2017-05-22T05:32:12.781Z,17.90
2017-05-22T05:34:41.021Z,18.00
2017-05-22T05:37:09.370Z,18.00
2017-05-22T05:39:37.646Z,17.40
2017-05-22T05:42:05.882Z,17.50
2017-05-22T05:44:34.116Z,19.20
2017-05-22T05:47:02.357Z,20.60
2017-05-22T05:49:30.638Z,20.40
2017-05-22T05:51:58.131Z,20.40
2017-05-22T05:54:26.475Z,19.40
2017-05-22T05:56:54.711Z,18.90
2017-05-22T05:59:23.026Z,18.80
2017-05-22T06:01:51.296Z,19.30
2017-05-22T06:04:19.545Z,19.20
2017-05-22T06:06:47.858Z,19.40
2017-05-22T06:09:16.086Z,20.90
2017-05-22T06:11:44.395Z,21.70
2017-05-22T06:14:12.690Z,22.90
2017-05-22T06:16:40.938Z,23.90
2017-05-22T06:19:09.161Z,24.50
2017-05-22T06:21:37.398Z,25.10
2017-05-22T06:24:05.636Z,25.90
2017-05-22T06:26:33.877Z,25.50
2017-05-22T06:29:02.237Z,25.40
2017-05-22T06:31:30.467Z,25.10
2017-05-22T06:33:58.718Z,24.60
2017-05-22T06:36:26.951Z,23.50
2017-05-22T06:38:55.188Z,21.40
2017-05-22T06:41:23.411Z,20.40
2017-05-22T06:43:51.686Z,20.00
2017-05-22T06:46:19.911Z,19.30
2017-05-22T06:48:48.150Z,18.40
2017-05-22T06:51:16.371Z,18.40
2017-05-22T06:53:44.623Z,18.40
2017-05-22T06:56:12.948Z,18.30
2017-05-22T06:58:41.192Z,18.40
2017-05-22T07:01:09.437Z,18.60
2017-05-22T07:03:37.682Z,18.80
2017-05-22T07:06:05.951Z,18.40
2017-05-22T07:08:34.246Z,17.70
2017-05-22T07:11:02.501Z,17.90
2017-05-22T07:13:30.746Z,18.10
2017-05-22T07:15:59.066Z,18.10
2017-05-22T07:18:27.321Z,18.30
2017-05-22T07:20:55.569Z,18.70
2017-05-22T07:23:23.809Z,18.90
2017-05-22T07:25:52.061Z,18.70
2017-05-22T07:28:20.341Z,18.80
2017-05-22T07:30:48.570Z,18.80
2017-05-22T07:33:16.891Z,18.80
2017-05-22T07:35:45.125Z,18.90
2017-05-22T07:38:13.367Z,19.00
2017-05-22T07:40:41.609Z,18.80
2017-05-22T07:43:09.863Z,19.10
2017-05-22T07:45:38.110Z,19.30
2017-05-22T07:48:06.312Z,19.20
2017-05-22T07:50:34.575Z,19.40
2017-05-22T07:53:02.814Z,19.30
2017-05-22T07:55:31.062Z,19.30
2017-05-22T07:57:59.296Z,19.20
2017-05-22T08:00:27.522Z,19.10
2017-05-22T08:02:55.766Z,19.30
2017-05-22T08:05:24.010Z,19.20
2017-05-22T08:07:52.246Z,19.30
2017-05-22T08:10:20.494Z,19.00
2017-05-22T08:12:48.781Z,19.00
2017-05-22T08:15:17.051Z,19.20
2017-05-22T08:17:45.337Z,19.30
2017-05-22T08:20:13.573Z,19.30
2017-05-22T08:22:41.814Z,19.50
2017-05-22T08:25:10.059Z,19.60
2017-05-22T08:27:38.292Z,19.50
2017-05-22T08:30:06.525Z,19.40
2017-05-22T08:32:34.773Z,19.50
2017-05-22T08:35:03.066Z,19.60
2017-05-22T08:37:31.293Z,19.80
2017-05-22T08:39:59.529Z,19.80
2017-05-22T08:42:27.794Z,19.90
2017-05-22T08:44:56.017Z,19.90
2017-05-22T08:47:24.341Z,19.80
2017-05-22T08:49:52.581Z,19.60
2017-05-22T08:52:20.857Z,19.80
2017-05-22T08:54:49.158Z,20.00
2017-05-22T08:57:17.439Z,20.40
2017-05-22T08:59:45.667Z,20.50
2017-05-22T09:02:13.887Z,20.50
2017-05-22T09:04:42.139Z,20.50
2017-05-22T09:07:10.449Z,20.80
2017-05-22T09:09:38.726Z,20.70
2017-05-22T09:12:06.955Z,20.80
2017-05-22T09:14:35.259Z,20.40
2017-05-22T09:17:03.501Z,20.50
2017-05-22T09:19:31.727Z,20.60
2017-05-22T09:22:00.893Z,20.50
2017-05-22T09:24:29.162Z,20.60
2017-05-22T09:26:57.459Z,20.40
2017-05-22T09:29:25.706Z,20.80
2017-05-22T09:31:53.928Z,20.80
2017-05-22T09:34:22.177Z,20.60
2017-05-22T09:36:50.398Z,20.80
2017-05-22T09:39:18.734Z,21.30
2017-05-22T09:41:46.977Z,21.60
2017-05-22T09:44:15.295Z,22.00
2017-05-22T09:46:43.569Z,22.00
2017-05-22T09:49:11.849Z,21.80
2017-05-22T09:51:40.113Z,21.60
2017-05-22T09:54:08.359Z,22.10
2017-05-22T09:56:35.837Z,22.10
2017-05-22T09:59:04.131Z,21.50
2017-05-22T10:01:32.401Z,21.30
2017-05-22T10:04:00.667Z,21.30
2017-05-22T10:06:28.951Z,21.50
2017-05-22T10:08:57.189Z,21.50
2017-05-22T10:11:25.415Z,21.10
2017-05-22T10:13:53.686Z,21.10
2017-05-22T10:16:21.957Z,21.50
2017-05-22T10:18:50.197Z,21.90
2017-05-22T10:21:18.444Z,21.80
2017-05-22T10:23:46.663Z,21.50
2017-05-22T10:26:14.910Z,21.00
2017-05-22T10:28:43.227Z,21.00
2017-05-22T10:31:11.499Z,21.00
2017-05-22T10:33:39.747Z,21.50
2017-05-22T10:36:07.967Z,22.00
2017-05-22T10:38:36.320Z,22.30
2017-05-22T10:41:04.562Z,22.70
2017-05-22T10:43:32.797Z,23.00
2017-05-22T10:46:01.037Z,22.80
2017-05-22T10:48:29.379Z,23.00
2017-05-22T10:50:57.713Z,23.00
2017-05-22T10:53:25.943Z,23.30
2017-05-22T10:55:54.182Z,23.20
2017-05-22T10:58:22.443Z,22.80
2017-05-22T11:00:50.702Z,22.30
2017-05-22T11:03:18.931Z,22.30
2017-05-22T11:05:47.178Z,22.70
2017-05-22T11:08:15.421Z,22.80
2017-05-22T11:10:43.710Z,22.40
2017-05-22T11:13:11.989Z,22.50
2017-05-22T11:15:40.267Z,22.70
2017-05-22T11:18:08.494Z,22.60
2017-05-22T11:20:36.743Z,22.90
2017-05-22T11:23:04.964Z,23.00
2017-05-22T11:25:33.207Z,22.90
2017-05-22T11:28:01.427Z,22.60
2017-05-22T11:30:29.673Z,22.80
2017-05-22T11:32:57.994Z,23.20
2017-05-22T11:35:26.217Z,23.60
2017-05-22T11:37:54.460Z,23.80
2017-05-22T11:40:22.686Z,23.90
2017-05-22T11:42:50.919Z,23.60
2017-05-22T11:45:19.153Z,23.10
2017-05-22T11:47:47.414Z,22.70
2017-05-22T11:50:15.722Z,22.40
2017-05-22T11:52:43.958Z,22.40
2017-05-22T11:55:12.205Z,22.20
2017-05-22T11:57:40.428Z,22.40
2017-05-22T12:00:08.655Z,22.70
2017-05-22T12:02:36.886Z,22.70
2017-05-22T12:05:05.122Z,22.80
2017-05-22T12:07:33.436Z,22.10
2017-05-22T12:10:00.913Z,22.10
2017-05-22T12:12:29.174Z,22.10
2017-05-22T12:14:57.426Z,22.40
2017-05-22T12:17:25.715Z,22.90
2017-05-22T12:19:53.982Z,23.30
2017-05-22T12:22:22.227Z,23.20
2017-05-22T12:24:50.463Z,22.80
2017-05-22T12:27:18.714Z,22.70
2017-05-22T12:29:46.944Z,22.50
2017-05-22T12:32:15.270Z,22.70
2017-05-22T12:34:43.499Z,22.40
2017-05-22T12:37:11.728Z,22.50
2017-05-22T12:39:39.983Z,22.50
2017-05-22T12:42:08.223Z,23.20
2017-05-22T12:44:36.543Z,23.50
2017-05-22T12:47:04.821Z,23.70
2017-05-22T12:49:33.051Z,23.50
2017-05-22T12:52:01.681Z,23.80
2017-05-22T12:54:29.911Z,23.50
2017-05-22T12:56:58.151Z,23.00
2017-05-22T12:59:26.409Z,23.10
2017-05-22T13:01:54.649Z,23.30
2017-05-22T13:04:22.883Z,23.50
2017-05-22T13:06:51.115Z,23.70
2017-05-22T13:09:19.346Z,23.30
2017-05-22T13:11:47.586Z,23.10
2017-05-22T13:14:15.834Z,22.90
2017-05-22T13:16:44.060Z,23.00
2017-05-22T13:19:12.299Z,23.40
2017-05-22T13:21:40.538Z,23.80
2017-05-22T13:24:08.779Z,23.80
2017-05-22T13:26:37.012Z,23.30
2017-05-22T13:29:05.281Z,23.10
2017-05-22T13:31:33.578Z,22.90
2017-05-22T13:34:01.825Z,22.90
2017-05-22T13:36:30.075Z,23.20
2017-05-22T13:38:58.299Z,23.40
2017-05-22T13:41:26.550Z,23.70
2017-05-22T13:43:54.791Z,23.60
2017-05-22T13:46:23.030Z,23.50
2017-05-22T13:48:51.274Z,23.30
2017-05-22T13:51:19.499Z,23.40
2017-05-22T13:53:47.737Z,23.50
2017-05-22T13:56:15.984Z,23.40
2017-05-22T13:58:44.212Z,23.10
2017-05-22T14:01:12.475Z,23.20
2017-05-22T14:03:40.725Z,23.60
2017-05-22T14:06:08.963Z,23.60
2017-05-22T14:08:37.210Z,23.10
2017-05-22T14:11:05.453Z,23.50
2017-05-22T14:13:33.702Z,23.40
2017-05-22T14:16:01.937Z,23.40
2017-05-22T14:18:30.179Z,23.80
2017-05-22T14:20:58.404Z,24.10
2017-05-22T14:23:26.645Z,24.30
2017-05-22T14:25:54.925Z,24.40
2017-05-22T14:28:23.166Z,24.60
2017-05-22T14:30:51.462Z,24.40
2017-05-22T14:33:19.716Z,24.20
2017-05-22T14:35:47.957Z,23.80
2017-05-22T14:38:16.196Z,23.50
2017-05-22T14:40:44.463Z,23.40
2017-05-22T14:43:12.706Z,23.30
2017-05-22T14:45:40.936Z,23.20
2017-05-22T14:48:09.189Z,23.20
2017-05-22T14:50:37.430Z,23.10
2017-05-22T14:53:05.673Z,23.50
2017-05-22T14:55:33.918Z,23.70
2017-05-22T14:58:02.198Z,23.30
2017-05-22T15:00:30.447Z,23.20
2017-05-22T15:02:58.753Z,23.30
2017-05-22T15:05:26.991Z,23.40
2017-05-22T15:07:55.220Z,23.20
2017-05-22T15:10:23.558Z,22.90
2017-05-22T15:12:51.790Z,23.00
2017-05-22T15:15:20.014Z,23.30
2017-05-22T15:17:48.259Z,23.50
2017-05-22T15:20:16.573Z,23.50
2017-05-22T15:22:44.138Z,23.40
2017-05-22T15:25:12.378Z,23.50
2017-05-22T15:27:40.603Z,23.50
2017-05-22T15:30:08.841Z,23.60
2017-05-22T15:32:36.318Z,23.50
2017-05-22T15:35:04.578Z,23.60
2017-05-22T15:37:32.821Z,23.50
2017-05-22T15:40:01.138Z,23.40
2017-05-22T15:42:29.393Z,23.70
2017-05-22T15:44:57.689Z,23.40
2017-05-22T15:47:25.972Z,23.10
2017-05-22T15:49:54.196Z,23.10
2017-05-22T15:52:21.680Z,23.10
2017-05-22T15:54:49.959Z,23.30
2017-05-22T15:57:18.236Z,23.30
2017-05-22T15:59:46.478Z,23.30
2017-05-22T16:02:14.787Z,23.30
2017-05-22T16:04:43.033Z,23.30
2017-05-22T16:07:11.273Z,23.20
2017-05-22T16:09:39.521Z,23.20
2017-05-22T16:12:07.766Z,23.20
2017-05-22T16:14:36.007Z,23.30
2017-05-22T16:17:04.248Z,23.30
2017-05-22T16:19:32.517Z,23.10
2017-05-22T16:22:00.744Z,23.10
2017-05-22T16:24:29.074Z,23.30
2017-05-22T16:26:57.313Z,23.20
2017-05-22T16:29:25.557Z,23.30
2017-05-22T16:31:53.793Z,23.30
2017-05-22T16:34:22.037Z,23.20
2017-05-22T16:36:50.346Z,23.20
2017-05-22T16:39:18.588Z,23.10
2017-05-22T16:41:46.837Z,22.90
2017-05-22T16:44:15.064Z,22.80
2017-05-22T16:46:43.314Z,22.80
2017-05-22T16:49:11.622Z,22.80
2017-05-22T16:51:39.884Z,23.00
2017-05-22T16:54:08.128Z,23.20
2017-05-22T16:56:36.365Z,23.00
2017-05-22T16:59:04.717Z,23.10
2017-05-22T17:01:32.957Z,23.30
2017-05-22T17:04:01.193Z,23.30
2017-05-22T17:06:29.429Z,23.50
2017-05-22T17:08:57.710Z,23.60
2017-05-22T17:11:25.958Z,22.90
2017-05-22T17:13:54.210Z,22.70
2017-05-22T17:16:22.445Z,22.70
2017-05-22T17:18:50.816Z,22.50
2017-05-22T17:21:19.102Z,22.40
2017-05-22T17:23:47.328Z,22.30
2017-05-22T17:26:15.572Z,22.20
2017-05-22T17:28:43.801Z,22.10
2017-05-22T17:31:12.041Z,22.00
2017-05-22T17:33:40.281Z,21.90
2017-05-22T17:36:08.524Z,21.90
2017-05-22T17:38:36.761Z,21.80
2017-05-22T17:41:05.084Z,21.70
2017-05-22T17:43:33.327Z,21.70
2017-05-22T17:46:01.670Z,21.70
2017-05-22T17:48:29.146Z,21.60
2017-05-22T17:50:57.393Z,21.60
2017-05-22T17:53:25.637Z,21.50
2017-05-22T17:55:53.874Z,21.40
2017-05-22T17:58:21.341Z,21.40
2017-05-22T18:00:49.665Z,21.30
2017-05-22T18:03:17.889Z,21.20
2017-05-22T18:05:46.120Z,21.10
2017-05-22T18:08:14.355Z,21.10
2017-05-22T18:10:42.651Z,21.10
2017-05-22T18:13:10.897Z,21.00
2017-05-22T18:15:39.218Z,20.90
2017-05-22T18:18:07.474Z,20.90
2017-05-22T18:20:35.765Z,20.80
2017-05-22T18:23:04.040Z,20.70
2017-05-22T18:25:32.282Z,20.60
2017-05-22T18:28:00.517Z,20.50
2017-05-22T18:30:28.859Z,20.40
2017-05-22T18:32:57.155Z,20.30
2017-05-22T18:35:25.393Z,20.30
2017-05-22T18:37:53.647Z,20.20
2017-05-22T18:40:21.881Z,20.10
2017-05-22T18:42:50.123Z,20.00
2017-05-22T18:45:18.370Z,19.90
2017-05-22T18:47:46.614Z,19.90
2017-05-22T18:50:14.868Z,19.70
2017-05-22T18:52:43.143Z,19.60
2017-05-22T18:55:11.390Z,19.40
2017-05-22T18:57:39.625Z,19.30
2017-05-22T19:00:07.873Z,19.10
2017-05-22T19:02:36.140Z,19.10
2017-05-22T19:05:04.421Z,19.00
2017-05-22T19:07:32.650Z,19.00
2017-05-22T19:10:00.880Z,18.90
2017-05-22T19:12:29.123Z,18.80
2017-05-22T19:14:57.424Z,18.70
2017-05-22T19:17:25.660Z,18.60
2017-05-22T19:19:53.160Z,18.60
2017-05-22T19:22:21.434Z,18.50
2017-05-22T19:24:49.663Z,18.50
2017-05-22T19:27:17.935Z,18.50
2017-05-22T19:29:46.184Z,18.50
2017-05-22T19:32:14.527Z,18.50
2017-05-22T19:34:42.769Z,18.40
2017-05-22T19:37:11.037Z,18.30
2017-05-22T19:39:39.319Z,18.20
2017-05-22T19:42:07.542Z,18.20
2017-05-22T19:44:35.809Z,18.10
2017-05-22T19:47:04.048Z,18.10
2017-05-22T19:49:32.326Z,17.90
2017-05-22T19:52:00.679Z,17.80
2017-05-22T19:54:28.929Z,17.70
2017-05-22T19:56:57.156Z,17.50
2017-05-22T19:59:25.394Z,17.30
2017-05-22T20:01:53.635Z,17.30
2017-05-22T20:04:21.388Z,17.20
2017-05-22T20:06:49.768Z,17.10
2017-05-22T20:09:18.026Z,17.00
2017-05-22T20:11:46.287Z,16.80
2017-05-22T20:14:14.602Z,16.70
2017-05-22T20:16:42.063Z,16.70
2017-05-22T20:19:10.308Z,16.40
2017-05-22T20:21:37.773Z,16.40
2017-05-22T20:24:06.011Z,16.30
2017-05-22T20:26:34.236Z,16.30
2017-05-22T20:29:02.477Z,16.20
2017-05-22T20:31:30.770Z,16.10
2017-05-22T20:33:59.068Z,16.00
2017-05-22T20:36:27.311Z,15.90
2017-05-22T20:38:55.558Z,15.90
2017-05-22T20:41:23.811Z,15.90
2017-05-22T20:43:52.085Z,15.90
2017-05-22T20:46:20.326Z,15.90
2017-05-22T20:48:48.560Z,15.90
2017-05-22T20:51:16.889Z,15.90
2017-05-22T20:53:45.163Z,15.90
2017-05-22T20:56:13.415Z,15.90
2017-05-22T20:58:41.718Z,15.80
2017-05-22T21:01:09.965Z,15.80
2017-05-22T21:03:38.206Z,15.70
2017-05-22T21:06:06.447Z,15.60
2017-05-22T21:08:34.691Z,15.50
2017-05-22T21:11:02.998Z,15.40
2017-05-22T21:13:31.274Z,15.30
2017-05-22T21:15:59.555Z,15.20
2017-05-22T21:18:27.822Z,15.20
2017-05-22T21:20:56.063Z,15.10
2017-05-22T21:23:24.314Z,15.10
2017-05-22T21:25:52.562Z,15.10
2017-05-22T21:28:20.914Z,15.10
2017-05-22T21:30:49.201Z,15.10
2017-05-22T21:33:17.479Z,15.00
2017-05-22T21:35:46.223Z,14.90
2017-05-22T21:38:14.493Z,14.70
2017-05-22T21:40:42.813Z,14.60
2017-05-22T21:43:11.073Z,14.60
2017-05-22T21:45:39.356Z,14.60
2017-05-22T21:48:07.616Z,14.60
2017-05-22T21:50:35.865Z,14.50
2017-05-22T21:53:04.191Z,14.50
2017-05-22T21:55:32.565Z,14.50
2017-05-22T21:58:00.822Z,14.40
2017-05-22T22:02:40.144Z,14.30
2017-05-22T22:05:08.406Z,14.20
2017-05-22T22:07:36.639Z,14.20
2017-05-22T22:10:04.918Z,14.10
2017-05-22T22:12:33.173Z,14.10
2017-05-22T22:15:01.419Z,14.00
2017-05-22T22:17:29.664Z,13.90
2017-05-22T22:19:58.027Z,13.80
2017-05-22T22:22:26.275Z,13.80
2017-05-22T22:24:54.610Z,13.80
2017-05-22T22:27:22.839Z,13.80
2017-05-22T22:29:51.111Z,13.80
2017-05-22T22:32:19.349Z,13.80
2017-05-22T22:34:47.560Z,13.80
2017-05-22T22:37:15.854Z,13.80
2017-05-22T22:39:44.118Z,13.70
2017-05-22T22:42:12.383Z,13.70
2017-05-22T22:44:40.623Z,13.70
2017-05-22T22:47:08.935Z,13.60
2017-05-22T22:49:37.177Z,13.60
2017-05-22T22:52:05.550Z,13.60
2017-05-22T22:54:33.862Z,13.60
2017-05-22T22:57:02.114Z,13.60
2017-05-22T22:59:30.417Z,13.50
2017-05-22T23:01:58.661Z,13.60
2017-05-22T23:04:26.910Z,13.60
2017-05-22T23:06:55.165Z,13.50
2017-05-22T23:09:23.413Z,13.40
2017-05-22T23:11:51.658Z,13.60
2017-05-22T23:14:19.913Z,13.70
2017-05-22T23:16:48.241Z,13.60
2017-05-22T23:19:16.475Z,13.60
2017-05-22T23:21:44.727Z,13.50
2017-05-22T23:24:12.973Z,13.40
2017-05-22T23:26:41.206Z,13.30
2017-05-22T23:29:09.460Z,13.30
2017-05-22T23:31:37.710Z,13.50
2017-05-22T23:34:05.963Z,13.40
2017-05-22T23:36:34.209Z,13.30
2017-05-22T23:39:02.464Z,13.20
2017-05-22T23:41:30.717Z,13.20
2017-05-22T23:43:59.078Z,13.10
2017-05-22T23:46:27.355Z,13.00
2017-05-22T23:48:55.597Z,12.90
2017-05-22T23:51:23.837Z,12.90
2017-05-22T23:53:52.168Z,12.90
2017-05-22T23:56:20.466Z,12.90
2017-05-22T23:58:48.771Z,12.80
